sensor_id;sensor_type;location;lat;lon;timestamp;P1;durP1;ratioP1;P2;durP2;ratioP2
2522;SDS011;1272;53.332;9.860;2023-05-07T00:01:45;15.37;;;13.20;;
2522;SDS011;1272;53.332;9.860;2023-05-07T00:04:11;14.23;;;12.47;;
2522;SDS011;1272;53.332;9.860;2023-05-07T00:06:36;15.27;;;12.50;;
2522;SDS011;1272;53.332;9.860;2023-05-07T00:09:02;15.30;;;13.70;;
2522;SDS011;1272;53.332;9.860;2023-05-07T00:11:29;14.80;;;12.43;;
2522;SDS011;1272;53.332;9.860;2023-05-07T00:13:55;15.70;;;12.80;;
2522;SDS011;1272;53.332;9.860;2023-05-07T00:16:21;12.67;;;11.20;;
2522;SDS011;1272;53.332;9.860;2023-05-07T00:18:47;13.53;;;12.13;;
2522;SDS011;1272;53.332;9.860;2023-05-07T00:21:13;12.83;;;11.60;;
2522;SDS011;1272;53.332;9.860;2023-05-07T00:23:39;13.90;;;11.10;;
2522;SDS011;1272;53.332;9.860;2023-05-07T00:26:04;12.23;;;9.33;;
2522;SDS011;1272;53.332;9.860;2023-05-07T00:28:30;11.87;;;9.60;;
2522;SDS011;1272;53.332;9.860;2023-05-07T00:30:56;13.63;;;11.37;;
2522;SDS011;1272;53.332;9.860;2023-05-07T00:33:22;11.73;;;9.30;;
2522;SDS011;1272;53.332;9.860;2023-05-07T00:35:47;10.10;;;9.10;;
2522;SDS011;1272;53.332;9.860;2023-05-07T00:38:13;9.90;;;8.67;;
2522;SDS011;1272;53.332;9.860;2023-05-07T00:40:39;10.07;;;8.80;;
2522;SDS011;1272;53.332;9.860;2023-05-07T00:43:05;8.70;;;7.80;;
2522;SDS011;1272;53.332;9.860;2023-05-07T00:45:32;9.40;;;7.93;;
2522;SDS011;1272;53.332;9.860;2023-05-07T00:47:59;12.57;;;8.03;;
2522;SDS011;1272;53.332;9.860;2023-05-07T00:50:27;6.13;;;5.53;;
2522;SDS011;1272;53.332;9.860;2023-05-07T00:52:54;7.47;;;6.77;;
2522;SDS011;1272;53.332;9.860;2023-05-07T00:55:21;8.57;;;7.40;;
2522;SDS011;1272;53.332;9.860;2023-05-07T00:57:49;7.03;;;6.43;;
2522;SDS011;1272;53.332;9.860;2023-05-07T01:00:16;8.37;;;7.13;;
2522;SDS011;1272;53.332;9.860;2023-05-07T01:02:43;8.83;;;6.97;;
2522;SDS011;1272;53.332;9.860;2023-05-07T01:05:13;7.97;;;7.23;;
2522;SDS011;1272;53.332;9.860;2023-05-07T01:07:40;11.83;;;6.87;;
2522;SDS011;1272;53.332;9.860;2023-05-07T01:10:07;8.17;;;6.13;;
2522;SDS011;1272;53.332;9.860;2023-05-07T01:12:35;8.27;;;5.63;;
2522;SDS011;1272;53.332;9.860;2023-05-07T01:15:02;7.20;;;6.50;;
2522;SDS011;1272;53.332;9.860;2023-05-07T01:17:33;9.77;;;7.53;;
2522;SDS011;1272;53.332;9.860;2023-05-07T01:20:04;7.50;;;6.20;;
2522;SDS011;1272;53.332;9.860;2023-05-07T01:22:32;8.77;;;6.93;;
2522;SDS011;1272;53.332;9.860;2023-05-07T01:24:59;8.97;;;6.40;;
2522;SDS011;1272;53.332;9.860;2023-05-07T01:27:26;8.23;;;6.97;;
2522;SDS011;1272;53.332;9.860;2023-05-07T01:29:52;7.43;;;6.70;;
2522;SDS011;1272;53.332;9.860;2023-05-07T01:32:23;7.30;;;6.60;;
2522;SDS011;1272;53.332;9.860;2023-05-07T01:34:57;9.23;;;7.40;;
2522;SDS011;1272;53.332;9.860;2023-05-07T01:37:25;7.63;;;6.90;;
2522;SDS011;1272;53.332;9.860;2023-05-07T01:39:51;8.27;;;7.20;;
2522;SDS011;1272;53.332;9.860;2023-05-07T01:42:18;7.07;;;6.40;;
2522;SDS011;1272;53.332;9.860;2023-05-07T01:44:43;7.13;;;6.43;;
2522;SDS011;1272;53.332;9.860;2023-05-07T01:47:09;9.67;;;7.93;;
2522;SDS011;1272;53.332;9.860;2023-05-07T01:49:36;7.50;;;6.80;;
2522;SDS011;1272;53.332;9.860;2023-05-07T01:52:02;7.37;;;6.67;;
2522;SDS011;1272;53.332;9.860;2023-05-07T01:54:28;7.60;;;6.67;;
2522;SDS011;1272;53.332;9.860;2023-05-07T01:56:56;8.40;;;7.37;;
2522;SDS011;1272;53.332;9.860;2023-05-07T01:59:22;7.97;;;7.17;;
2522;SDS011;1272;53.332;9.860;2023-05-07T02:01:47;7.70;;;7.00;;
2522;SDS011;1272;53.332;9.860;2023-05-07T02:04:13;7.90;;;7.10;;
2522;SDS011;1272;53.332;9.860;2023-05-07T02:06:39;6.90;;;6.30;;
2522;SDS011;1272;53.332;9.860;2023-05-07T02:09:05;8.33;;;7.53;;
2522;SDS011;1272;53.332;9.860;2023-05-07T02:11:31;7.53;;;6.70;;
2522;SDS011;1272;53.332;9.860;2023-05-07T02:13:56;9.93;;;7.43;;
2522;SDS011;1272;53.332;9.860;2023-05-07T02:16:22;9.60;;;6.83;;
2522;SDS011;1272;53.332;9.860;2023-05-07T02:18:48;9.23;;;6.90;;
2522;SDS011;1272;53.332;9.860;2023-05-07T02:21:14;9.63;;;7.53;;
2522;SDS011;1272;53.332;9.860;2023-05-07T02:23:40;8.53;;;7.67;;
2522;SDS011;1272;53.332;9.860;2023-05-07T02:26:06;8.63;;;7.17;;
2522;SDS011;1272;53.332;9.860;2023-05-07T02:28:31;8.27;;;7.47;;
2522;SDS011;1272;53.332;9.860;2023-05-07T02:31:00;8.60;;;7.80;;
2522;SDS011;1272;53.332;9.860;2023-05-07T02:33:27;7.83;;;7.03;;
2522;SDS011;1272;53.332;9.860;2023-05-07T02:35:53;7.77;;;6.97;;
2522;SDS011;1272;53.332;9.860;2023-05-07T02:38:19;7.90;;;7.10;;
2522;SDS011;1272;53.332;9.860;2023-05-07T02:40:44;8.10;;;7.03;;
2522;SDS011;1272;53.332;9.860;2023-05-07T02:43:10;7.53;;;6.80;;
2522;SDS011;1272;53.332;9.860;2023-05-07T02:45:36;9.47;;;7.83;;
2522;SDS011;1272;53.332;9.860;2023-05-07T02:48:02;8.97;;;7.53;;
2522;SDS011;1272;53.332;9.860;2023-05-07T02:50:28;8.10;;;7.30;;
2522;SDS011;1272;53.332;9.860;2023-05-07T02:52:54;8.00;;;6.77;;
2522;SDS011;1272;53.332;9.860;2023-05-07T02:55:20;8.00;;;6.80;;
2522;SDS011;1272;53.332;9.860;2023-05-07T02:57:46;8.73;;;7.17;;
2522;SDS011;1272;53.332;9.860;2023-05-07T03:00:13;7.10;;;6.50;;
2522;SDS011;1272;53.332;9.860;2023-05-07T03:02:40;8.27;;;7.47;;
2522;SDS011;1272;53.332;9.860;2023-05-07T03:05:06;8.57;;;7.77;;
2522;SDS011;1272;53.332;9.860;2023-05-07T03:07:32;7.70;;;6.50;;
2522;SDS011;1272;53.332;9.860;2023-05-07T03:09:58;8.17;;;7.23;;
2522;SDS011;1272;53.332;9.860;2023-05-07T03:12:23;8.50;;;7.60;;
2522;SDS011;1272;53.332;9.860;2023-05-07T03:14:50;7.20;;;6.57;;
2522;SDS011;1272;53.332;9.860;2023-05-07T03:17:16;7.80;;;6.40;;
2522;SDS011;1272;53.332;9.860;2023-05-07T03:19:42;8.33;;;7.00;;
2522;SDS011;1272;53.332;9.860;2023-05-07T03:22:07;6.43;;;5.83;;
2522;SDS011;1272;53.332;9.860;2023-05-07T03:24:33;8.13;;;7.20;;
2522;SDS011;1272;53.332;9.860;2023-05-07T03:26:59;10.27;;;8.10;;
2522;SDS011;1272;53.332;9.860;2023-05-07T03:29:26;8.87;;;7.83;;
2522;SDS011;1272;53.332;9.860;2023-05-07T03:31:51;9.13;;;7.53;;
2522;SDS011;1272;53.332;9.860;2023-05-07T03:34:17;9.70;;;8.77;;
2522;SDS011;1272;53.332;9.860;2023-05-07T03:36:47;8.57;;;7.53;;
2522;SDS011;1272;53.332;9.860;2023-05-07T03:39:13;8.10;;;7.30;;
2522;SDS011;1272;53.332;9.860;2023-05-07T03:41:39;10.27;;;8.00;;
2522;SDS011;1272;53.332;9.860;2023-05-07T03:44:05;8.73;;;7.40;;
2522;SDS011;1272;53.332;9.860;2023-05-07T03:46:31;9.10;;;8.20;;
2522;SDS011;1272;53.332;9.860;2023-05-07T03:48:57;9.23;;;7.30;;
2522;SDS011;1272;53.332;9.860;2023-05-07T03:51:23;9.90;;;8.20;;
2522;SDS011;1272;53.332;9.860;2023-05-07T03:53:49;10.53;;;8.47;;
2522;SDS011;1272;53.332;9.860;2023-05-07T03:56:17;9.80;;;8.60;;
2522;SDS011;1272;53.332;9.860;2023-05-07T03:58:43;7.63;;;6.90;;
2522;SDS011;1272;53.332;9.860;2023-05-07T04:01:10;11.53;;;8.23;;
2522;SDS011;1272;53.332;9.860;2023-05-07T04:03:37;9.43;;;8.23;;
2522;SDS011;1272;53.332;9.860;2023-05-07T04:06:02;10.70;;;9.43;;
2522;SDS011;1272;53.332;9.860;2023-05-07T04:08:28;10.30;;;8.33;;
2522;SDS011;1272;53.332;9.860;2023-05-07T04:10:54;10.43;;;7.70;;
2522;SDS011;1272;53.332;9.860;2023-05-07T04:13:21;10.10;;;8.30;;
2522;SDS011;1272;53.332;9.860;2023-05-07T04:15:46;10.30;;;8.60;;
2522;SDS011;1272;53.332;9.860;2023-05-07T04:18:14;13.83;;;8.93;;
2522;SDS011;1272;53.332;9.860;2023-05-07T04:20:40;8.93;;;8.03;;
2522;SDS011;1272;53.332;9.860;2023-05-07T04:23:05;11.63;;;8.23;;
2522;SDS011;1272;53.332;9.860;2023-05-07T04:25:32;12.73;;;9.10;;
2522;SDS011;1272;53.332;9.860;2023-05-07T04:27:58;11.10;;;8.37;;
2522;SDS011;1272;53.332;9.860;2023-05-07T04:30:23;8.87;;;7.97;;
2522;SDS011;1272;53.332;9.860;2023-05-07T04:32:50;10.80;;;9.17;;
2522;SDS011;1272;53.332;9.860;2023-05-07T04:35:15;10.23;;;8.80;;
2522;SDS011;1272;53.332;9.860;2023-05-07T04:37:41;10.37;;;8.30;;
2522;SDS011;1272;53.332;9.860;2023-05-07T04:40:07;12.43;;;8.87;;
2522;SDS011;1272;53.332;9.860;2023-05-07T04:42:33;10.80;;;9.03;;
2522;SDS011;1272;53.332;9.860;2023-05-07T04:44:59;10.60;;;8.13;;
2522;SDS011;1272;53.332;9.860;2023-05-07T04:47:25;11.47;;;7.83;;
2522;SDS011;1272;53.332;9.860;2023-05-07T04:49:50;9.20;;;7.80;;
2522;SDS011;1272;53.332;9.860;2023-05-07T04:52:16;10.53;;;8.07;;
2522;SDS011;1272;53.332;9.860;2023-05-07T04:54:42;12.10;;;9.23;;
2522;SDS011;1272;53.332;9.860;2023-05-07T04:57:07;12.77;;;9.50;;
2522;SDS011;1272;53.332;9.860;2023-05-07T04:59:33;13.30;;;8.87;;
2522;SDS011;1272;53.332;9.860;2023-05-07T05:01:59;10.67;;;7.67;;
2522;SDS011;1272;53.332;9.860;2023-05-07T05:04:25;10.33;;;7.67;;
2522;SDS011;1272;53.332;9.860;2023-05-07T05:06:51;11.00;;;8.40;;
2522;SDS011;1272;53.332;9.860;2023-05-07T05:09:16;10.63;;;8.00;;
2522;SDS011;1272;53.332;9.860;2023-05-07T05:11:42;8.80;;;7.87;;
2522;SDS011;1272;53.332;9.860;2023-05-07T05:14:08;9.73;;;8.70;;
2522;SDS011;1272;53.332;9.860;2023-05-07T05:16:33;10.03;;;8.30;;
2522;SDS011;1272;53.332;9.860;2023-05-07T05:18:59;8.90;;;7.07;;
2522;SDS011;1272;53.332;9.860;2023-05-07T05:21:26;10.13;;;8.20;;
2522;SDS011;1272;53.332;9.860;2023-05-07T05:23:52;9.20;;;8.30;;
2522;SDS011;1272;53.332;9.860;2023-05-07T05:26:17;9.87;;;8.07;;
2522;SDS011;1272;53.332;9.860;2023-05-07T05:28:43;11.00;;;8.00;;
2522;SDS011;1272;53.332;9.860;2023-05-07T05:31:09;9.27;;;7.63;;
2522;SDS011;1272;53.332;9.860;2023-05-07T05:33:35;9.50;;;8.47;;
2522;SDS011;1272;53.332;9.860;2023-05-07T05:36:01;10.50;;;9.37;;
2522;SDS011;1272;53.332;9.860;2023-05-07T05:38:26;11.30;;;9.27;;
2522;SDS011;1272;53.332;9.860;2023-05-07T05:40:52;10.70;;;8.30;;
2522;SDS011;1272;53.332;9.860;2023-05-07T05:43:18;9.80;;;7.83;;
2522;SDS011;1272;53.332;9.860;2023-05-07T05:45:43;9.90;;;8.60;;
2522;SDS011;1272;53.332;9.860;2023-05-07T05:48:09;9.50;;;8.03;;
2522;SDS011;1272;53.332;9.860;2023-05-07T05:50:35;13.27;;;8.73;;
2522;SDS011;1272;53.332;9.860;2023-05-07T05:53:01;9.83;;;6.93;;
2522;SDS011;1272;53.332;9.860;2023-05-07T05:55:27;12.27;;;7.90;;
2522;SDS011;1272;53.332;9.860;2023-05-07T05:57:53;8.83;;;7.93;;
2522;SDS011;1272;53.332;9.860;2023-05-07T06:00:19;10.40;;;8.20;;
2522;SDS011;1272;53.332;9.860;2023-05-07T06:02:47;10.13;;;7.80;;
2522;SDS011;1272;53.332;9.860;2023-05-07T06:05:13;9.10;;;8.20;;
2522;SDS011;1272;53.332;9.860;2023-05-07T06:07:39;9.87;;;7.90;;
2522;SDS011;1272;53.332;9.860;2023-05-07T06:10:05;10.47;;;7.73;;
2522;SDS011;1272;53.332;9.860;2023-05-07T06:12:31;9.33;;;7.83;;
2522;SDS011;1272;53.332;9.860;2023-05-07T06:14:57;8.53;;;7.63;;
2522;SDS011;1272;53.332;9.860;2023-05-07T06:17:23;9.57;;;7.70;;
2522;SDS011;1272;53.332;9.860;2023-05-07T06:19:48;8.80;;;7.40;;
2522;SDS011;1272;53.332;9.860;2023-05-07T06:22:14;11.03;;;8.70;;
2522;SDS011;1272;53.332;9.860;2023-05-07T06:24:40;8.60;;;7.70;;
2522;SDS011;1272;53.332;9.860;2023-05-07T06:27:07;9.20;;;7.90;;
2522;SDS011;1272;53.332;9.860;2023-05-07T06:29:33;10.17;;;7.93;;
2522;SDS011;1272;53.332;9.860;2023-05-07T06:32:08;9.13;;;7.63;;
2522;SDS011;1272;53.332;9.860;2023-05-07T06:34:35;7.63;;;6.70;;
2522;SDS011;1272;53.332;9.860;2023-05-07T06:37:01;10.67;;;7.03;;
2522;SDS011;1272;53.332;9.860;2023-05-07T06:39:27;9.07;;;7.53;;
2522;SDS011;1272;53.332;9.860;2023-05-07T06:41:53;8.20;;;7.20;;
2522;SDS011;1272;53.332;9.860;2023-05-07T06:44:19;8.27;;;6.43;;
2522;SDS011;1272;53.332;9.860;2023-05-07T06:46:44;7.53;;;6.67;;
2522;SDS011;1272;53.332;9.860;2023-05-07T06:49:12;7.70;;;6.90;;
2522;SDS011;1272;53.332;9.860;2023-05-07T06:51:38;8.53;;;6.60;;
2522;SDS011;1272;53.332;9.860;2023-05-07T06:54:04;7.57;;;6.80;;
2522;SDS011;1272;53.332;9.860;2023-05-07T06:56:30;9.70;;;6.90;;
2522;SDS011;1272;53.332;9.860;2023-05-07T06:58:56;7.53;;;6.70;;
2522;SDS011;1272;53.332;9.860;2023-05-07T07:01:22;7.93;;;6.73;;
2522;SDS011;1272;53.332;9.860;2023-05-07T07:03:48;9.73;;;7.43;;
2522;SDS011;1272;53.332;9.860;2023-05-07T07:06:14;7.00;;;6.20;;
2522;SDS011;1272;53.332;9.860;2023-05-07T07:08:39;8.43;;;6.20;;
2522;SDS011;1272;53.332;9.860;2023-05-07T07:11:05;8.83;;;6.87;;
2522;SDS011;1272;53.332;9.860;2023-05-07T07:13:31;6.50;;;5.90;;
2522;SDS011;1272;53.332;9.860;2023-05-07T07:15:57;11.53;;;5.40;;
2522;SDS011;1272;53.332;9.860;2023-05-07T07:18:22;7.10;;;6.40;;
2522;SDS011;1272;53.332;9.860;2023-05-07T07:20:48;9.43;;;6.00;;
2522;SDS011;1272;53.332;9.860;2023-05-07T07:23:14;9.53;;;6.00;;
2522;SDS011;1272;53.332;9.860;2023-05-07T07:25:40;7.77;;;5.80;;
2522;SDS011;1272;53.332;9.860;2023-05-07T07:28:06;6.77;;;5.93;;
2522;SDS011;1272;53.332;9.860;2023-05-07T07:30:31;7.27;;;6.43;;
2522;SDS011;1272;53.332;9.860;2023-05-07T07:32:59;7.73;;;5.57;;
2522;SDS011;1272;53.332;9.860;2023-05-07T07:35:36;6.47;;;5.87;;
2522;SDS011;1272;53.332;9.860;2023-05-07T07:38:02;6.37;;;5.77;;
2522;SDS011;1272;53.332;9.860;2023-05-07T07:40:28;6.53;;;5.93;;
2522;SDS011;1272;53.332;9.860;2023-05-07T07:42:56;6.47;;;5.87;;
2522;SDS011;1272;53.332;9.860;2023-05-07T07:45:23;5.90;;;5.27;;
2522;SDS011;1272;53.332;9.860;2023-05-07T07:47:48;5.83;;;5.33;;
2522;SDS011;1272;53.332;9.860;2023-05-07T07:50:14;8.10;;;5.97;;
2522;SDS011;1272;53.332;9.860;2023-05-07T07:52:40;7.50;;;5.50;;
2522;SDS011;1272;53.332;9.860;2023-05-07T07:55:06;5.87;;;5.23;;
2522;SDS011;1272;53.332;9.860;2023-05-07T07:57:32;5.40;;;4.63;;
2522;SDS011;1272;53.332;9.860;2023-05-07T07:59:58;5.10;;;4.70;;
2522;SDS011;1272;53.332;9.860;2023-05-07T08:02:23;5.77;;;5.27;;
2522;SDS011;1272;53.332;9.860;2023-05-07T08:04:50;4.57;;;4.17;;
2522;SDS011;1272;53.332;9.860;2023-05-07T08:07:15;6.37;;;5.13;;
2522;SDS011;1272;53.332;9.860;2023-05-07T08:09:43;5.57;;;4.50;;
2522;SDS011;1272;53.332;9.860;2023-05-07T08:12:09;5.93;;;5.30;;
2522;SDS011;1272;53.332;9.860;2023-05-07T08:14:35;4.70;;;4.40;;
2522;SDS011;1272;53.332;9.860;2023-05-07T08:17:02;4.40;;;4.10;;
2522;SDS011;1272;53.332;9.860;2023-05-07T08:19:27;5.20;;;4.70;;
2522;SDS011;1272;53.332;9.860;2023-05-07T08:21:53;6.53;;;5.40;;
2522;SDS011;1272;53.332;9.860;2023-05-07T08:24:20;4.90;;;4.50;;
2522;SDS011;1272;53.332;9.860;2023-05-07T08:26:47;5.30;;;4.80;;
2522;SDS011;1272;53.332;9.860;2023-05-07T08:29:12;6.40;;;5.23;;
2522;SDS011;1272;53.332;9.860;2023-05-07T08:31:38;5.90;;;5.30;;
2522;SDS011;1272;53.332;9.860;2023-05-07T08:34:04;7.60;;;5.67;;
2522;SDS011;1272;53.332;9.860;2023-05-07T08:36:31;6.20;;;5.70;;
2522;SDS011;1272;53.332;9.860;2023-05-07T08:38:57;6.60;;;5.93;;
2522;SDS011;1272;53.332;9.860;2023-05-07T08:41:24;5.63;;;4.07;;
2522;SDS011;1272;53.332;9.860;2023-05-07T08:43:50;7.43;;;5.70;;
2522;SDS011;1272;53.332;9.860;2023-05-07T08:46:20;5.33;;;4.60;;
2522;SDS011;1272;53.332;9.860;2023-05-07T08:48:50;5.70;;;5.10;;
2522;SDS011;1272;53.332;9.860;2023-05-07T08:51:18;5.90;;;5.40;;
2522;SDS011;1272;53.332;9.860;2023-05-07T08:53:46;5.20;;;4.73;;
2522;SDS011;1272;53.332;9.860;2023-05-07T08:56:16;5.23;;;4.77;;
2522;SDS011;1272;53.332;9.860;2023-05-07T08:58:43;8.40;;;4.97;;
2522;SDS011;1272;53.332;9.860;2023-05-07T09:01:10;5.37;;;4.87;;
2522;SDS011;1272;53.332;9.860;2023-05-07T09:03:39;5.70;;;4.97;;
2522;SDS011;1272;53.332;9.860;2023-05-07T09:06:05;5.00;;;4.60;;
2522;SDS011;1272;53.332;9.860;2023-05-07T09:08:34;5.00;;;4.60;;
2522;SDS011;1272;53.332;9.860;2023-05-07T09:11:01;5.57;;;5.17;;
2522;SDS011;1272;53.332;9.860;2023-05-07T09:13:27;6.30;;;4.97;;
2522;SDS011;1272;53.332;9.860;2023-05-07T09:15:53;5.47;;;5.07;;
2522;SDS011;1272;53.332;9.860;2023-05-07T09:18:19;6.20;;;4.77;;
2522;SDS011;1272;53.332;9.860;2023-05-07T09:20:45;7.43;;;4.83;;
2522;SDS011;1272;53.332;9.860;2023-05-07T09:23:10;5.30;;;4.80;;
2522;SDS011;1272;53.332;9.860;2023-05-07T09:25:37;5.67;;;5.20;;
2522;SDS011;1272;53.332;9.860;2023-05-07T09:28:03;5.00;;;4.60;;
2522;SDS011;1272;53.332;9.860;2023-05-07T09:30:34;5.30;;;4.87;;
2522;SDS011;1272;53.332;9.860;2023-05-07T09:33:01;5.47;;;5.07;;
2522;SDS011;1272;53.332;9.860;2023-05-07T09:35:29;4.53;;;4.17;;
2522;SDS011;1272;53.332;9.860;2023-05-07T09:37:58;5.10;;;4.67;;
2522;SDS011;1272;53.332;9.860;2023-05-07T09:40:29;4.40;;;4.00;;
2522;SDS011;1272;53.332;9.860;2023-05-07T09:42:56;4.00;;;3.70;;
2522;SDS011;1272;53.332;9.860;2023-05-07T09:45:25;5.80;;;5.37;;
2522;SDS011;1272;53.332;9.860;2023-05-07T09:47:55;4.83;;;4.33;;
2522;SDS011;1272;53.332;9.860;2023-05-07T09:50:29;5.00;;;4.50;;
2522;SDS011;1272;53.332;9.860;2023-05-07T09:52:58;4.33;;;4.03;;
2522;SDS011;1272;53.332;9.860;2023-05-07T09:55:24;4.57;;;4.17;;
2522;SDS011;1272;53.332;9.860;2023-05-07T09:57:51;4.63;;;4.27;;
2522;SDS011;1272;53.332;9.860;2023-05-07T10:00:21;5.50;;;4.90;;
2522;SDS011;1272;53.332;9.860;2023-05-07T10:02:48;5.07;;;4.67;;
2522;SDS011;1272;53.332;9.860;2023-05-07T10:05:16;5.17;;;4.77;;
2522;SDS011;1272;53.332;9.860;2023-05-07T10:07:45;4.53;;;4.23;;
2522;SDS011;1272;53.332;9.860;2023-05-07T10:10:11;6.23;;;5.13;;
2522;SDS011;1272;53.332;9.860;2023-05-07T10:12:38;5.60;;;5.10;;
2522;SDS011;1272;53.332;9.860;2023-05-07T10:15:08;4.30;;;3.97;;
2522;SDS011;1272;53.332;9.860;2023-05-07T10:17:38;6.17;;;5.20;;
2522;SDS011;1272;53.332;9.860;2023-05-07T10:20:05;5.60;;;4.77;;
2522;SDS011;1272;53.332;9.860;2023-05-07T10:22:33;5.47;;;5.07;;
2522;SDS011;1272;53.332;9.860;2023-05-07T10:25:14;5.80;;;4.50;;
2522;SDS011;1272;53.332;9.860;2023-05-07T10:27:43;4.57;;;4.23;;
2522;SDS011;1272;53.332;9.860;2023-05-07T10:32:43;4.70;;;4.40;;
2522;SDS011;1272;53.332;9.860;2023-05-07T10:35:22;4.83;;;4.50;;
2522;SDS011;1272;53.332;9.860;2023-05-07T10:37:55;5.83;;;5.27;;
2522;SDS011;1272;53.332;9.860;2023-05-07T10:40:21;4.63;;;4.33;;
2522;SDS011;1272;53.332;9.860;2023-05-07T10:42:56;5.27;;;4.77;;
2522;SDS011;1272;53.332;9.860;2023-05-07T10:45:24;4.67;;;4.37;;
2522;SDS011;1272;53.332;9.860;2023-05-07T10:50:46;5.87;;;5.37;;
2522;SDS011;1272;53.332;9.860;2023-05-07T10:55:43;6.10;;;5.50;;
2522;SDS011;1272;53.332;9.860;2023-05-07T11:00:46;5.60;;;5.10;;
2522;SDS011;1272;53.332;9.860;2023-05-07T11:03:14;5.23;;;4.83;;
2522;SDS011;1272;53.332;9.860;2023-05-07T11:05:41;5.30;;;4.90;;
2522;SDS011;1272;53.332;9.860;2023-05-07T11:08:08;5.80;;;5.30;;
2522;SDS011;1272;53.332;9.860;2023-05-07T11:10:53;6.03;;;5.43;;
2522;SDS011;1272;53.332;9.860;2023-05-07T11:16:22;4.90;;;4.20;;
2522;SDS011;1272;53.332;9.860;2023-05-07T11:18:53;5.33;;;4.83;;
2522;SDS011;1272;53.332;9.860;2023-05-07T11:21:33;6.50;;;5.90;;
2522;SDS011;1272;53.332;9.860;2023-05-07T11:24:09;5.90;;;5.43;;
2522;SDS011;1272;53.332;9.860;2023-05-07T11:26:48;10.90;;;6.00;;
2522;SDS011;1272;53.332;9.860;2023-05-07T11:29:18;5.27;;;4.87;;
2522;SDS011;1272;53.332;9.860;2023-05-07T11:31:49;4.47;;;4.07;;
2522;SDS011;1272;53.332;9.860;2023-05-07T11:34:20;5.43;;;5.03;;
2522;SDS011;1272;53.332;9.860;2023-05-07T11:36:47;4.70;;;4.30;;
2522;SDS011;1272;53.332;9.860;2023-05-07T11:39:23;5.37;;;4.87;;
2522;SDS011;1272;53.332;9.860;2023-05-07T11:41:50;5.00;;;4.60;;
2522;SDS011;1272;53.332;9.860;2023-05-07T11:44:15;5.30;;;4.87;;
2522;SDS011;1272;53.332;9.860;2023-05-07T11:46:44;4.63;;;4.23;;
2522;SDS011;1272;53.332;9.860;2023-05-07T11:49:10;5.60;;;5.13;;
2522;SDS011;1272;53.332;9.860;2023-05-07T11:51:36;4.77;;;4.37;;
2522;SDS011;1272;53.332;9.860;2023-05-07T11:54:05;4.10;;;3.80;;
2522;SDS011;1272;53.332;9.860;2023-05-07T11:56:34;4.60;;;4.20;;
2522;SDS011;1272;53.332;9.860;2023-05-07T11:59:00;3.83;;;3.53;;
2522;SDS011;1272;53.332;9.860;2023-05-07T12:01:27;5.53;;;5.03;;
2522;SDS011;1272;53.332;9.860;2023-05-07T12:03:53;5.17;;;4.70;;
2522;SDS011;1272;53.332;9.860;2023-05-07T12:06:19;5.37;;;4.87;;
2522;SDS011;1272;53.332;9.860;2023-05-07T12:08:45;4.57;;;4.17;;
2522;SDS011;1272;53.332;9.860;2023-05-07T12:11:15;5.10;;;4.03;;
2522;SDS011;1272;53.332;9.860;2023-05-07T12:13:48;4.40;;;4.00;;
2522;SDS011;1272;53.332;9.860;2023-05-07T12:16:14;4.33;;;4.00;;
2522;SDS011;1272;53.332;9.860;2023-05-07T12:18:40;4.17;;;3.93;;
2522;SDS011;1272;53.332;9.860;2023-05-07T12:21:06;4.50;;;4.20;;
2522;SDS011;1272;53.332;9.860;2023-05-07T12:23:33;4.03;;;3.73;;
2522;SDS011;1272;53.332;9.860;2023-05-07T12:26:01;3.97;;;3.77;;
2522;SDS011;1272;53.332;9.860;2023-05-07T12:28:27;4.33;;;3.90;;
2522;SDS011;1272;53.332;9.860;2023-05-07T12:30:52;4.07;;;3.83;;
2522;SDS011;1272;53.332;9.860;2023-05-07T12:33:19;4.03;;;3.73;;
2522;SDS011;1272;53.332;9.860;2023-05-07T12:35:49;4.07;;;3.77;;
2522;SDS011;1272;53.332;9.860;2023-05-07T12:38:16;4.57;;;4.17;;
2522;SDS011;1272;53.332;9.860;2023-05-07T12:40:43;3.97;;;3.67;;
2522;SDS011;1272;53.332;9.860;2023-05-07T12:43:24;4.10;;;3.77;;
2522;SDS011;1272;53.332;9.860;2023-05-07T12:45:51;3.87;;;3.57;;
2522;SDS011;1272;53.332;9.860;2023-05-07T12:48:18;4.63;;;4.23;;
2522;SDS011;1272;53.332;9.860;2023-05-07T12:50:45;3.70;;;3.50;;
2522;SDS011;1272;53.332;9.860;2023-05-07T12:53:14;3.60;;;3.30;;
2522;SDS011;1272;53.332;9.860;2023-05-07T12:55:43;3.93;;;3.73;;
2522;SDS011;1272;53.332;9.860;2023-05-07T12:58:33;3.33;;;3.13;;
2522;SDS011;1272;53.332;9.860;2023-05-07T13:00:59;4.00;;;3.70;;
2522;SDS011;1272;53.332;9.860;2023-05-07T13:05:57;5.70;;;2.90;;
2522;SDS011;1272;53.332;9.860;2023-05-07T13:08:38;3.30;;;3.10;;
2522;SDS011;1272;53.332;9.860;2023-05-07T13:11:08;3.00;;;2.90;;
2522;SDS011;1272;53.332;9.860;2023-05-07T13:13:35;3.20;;;3.00;;
2522;SDS011;1272;53.332;9.860;2023-05-07T13:16:02;5.40;;;5.00;;
2522;SDS011;1272;53.332;9.860;2023-05-07T13:18:29;3.87;;;3.57;;
2522;SDS011;1272;53.332;9.860;2023-05-07T13:20:56;6.27;;;4.50;;
2522;SDS011;1272;53.332;9.860;2023-05-07T13:23:22;4.80;;;4.40;;
2522;SDS011;1272;53.332;9.860;2023-05-07T13:25:49;5.10;;;4.60;;
2522;SDS011;1272;53.332;9.860;2023-05-07T13:28:15;3.50;;;3.20;;
2522;SDS011;1272;53.332;9.860;2023-05-07T13:30:41;3.90;;;3.20;;
2522;SDS011;1272;53.332;9.860;2023-05-07T13:33:07;3.40;;;3.20;;
2522;SDS011;1272;53.332;9.860;2023-05-07T13:35:33;3.27;;;2.97;;
2522;SDS011;1272;53.332;9.860;2023-05-07T13:38:00;3.30;;;3.10;;
2522;SDS011;1272;53.332;9.860;2023-05-07T13:40:25;2.97;;;2.77;;
2522;SDS011;1272;53.332;9.860;2023-05-07T13:42:51;3.30;;;3.10;;
2522;SDS011;1272;53.332;9.860;2023-05-07T13:45:20;2.70;;;2.60;;
2522;SDS011;1272;53.332;9.860;2023-05-07T13:47:46;3.33;;;3.13;;
2522;SDS011;1272;53.332;9.860;2023-05-07T13:50:12;3.40;;;3.20;;
2522;SDS011;1272;53.332;9.860;2023-05-07T13:52:41;3.47;;;3.27;;
2522;SDS011;1272;53.332;9.860;2023-05-07T13:55:08;3.47;;;2.93;;
2522;SDS011;1272;53.332;9.860;2023-05-07T13:57:35;3.90;;;3.53;;
2522;SDS011;1272;53.332;9.860;2023-05-07T14:00:02;3.10;;;2.90;;
2522;SDS011;1272;53.332;9.860;2023-05-07T14:02:30;3.50;;;3.30;;
2522;SDS011;1272;53.332;9.860;2023-05-07T14:04:56;3.50;;;3.30;;
2522;SDS011;1272;53.332;9.860;2023-05-07T14:07:21;2.87;;;2.70;;
2522;SDS011;1272;53.332;9.860;2023-05-07T14:09:47;2.90;;;2.70;;
2522;SDS011;1272;53.332;9.860;2023-05-07T14:12:13;3.57;;;3.27;;
2522;SDS011;1272;53.332;9.860;2023-05-07T14:14:38;2.93;;;2.73;;
2522;SDS011;1272;53.332;9.860;2023-05-07T14:17:07;3.10;;;2.90;;
2522;SDS011;1272;53.332;9.860;2023-05-07T14:19:33;2.77;;;2.47;;
2522;SDS011;1272;53.332;9.860;2023-05-07T14:21:59;3.37;;;3.07;;
2522;SDS011;1272;53.332;9.860;2023-05-07T14:24:24;2.97;;;2.77;;
2522;SDS011;1272;53.332;9.860;2023-05-07T14:26:50;2.73;;;2.53;;
2522;SDS011;1272;53.332;9.860;2023-05-07T14:29:16;2.63;;;2.43;;
2522;SDS011;1272;53.332;9.860;2023-05-07T14:31:44;2.77;;;2.67;;
2522;SDS011;1272;53.332;9.860;2023-05-07T14:34:10;3.20;;;3.00;;
2522;SDS011;1272;53.332;9.860;2023-05-07T14:36:36;2.43;;;2.33;;
2522;SDS011;1272;53.332;9.860;2023-05-07T14:39:03;3.50;;;3.20;;
2522;SDS011;1272;53.332;9.860;2023-05-07T14:41:29;3.27;;;3.07;;
2522;SDS011;1272;53.332;9.860;2023-05-07T14:43:54;3.00;;;2.83;;
2522;SDS011;1272;53.332;9.860;2023-05-07T14:46:20;2.67;;;2.57;;
2522;SDS011;1272;53.332;9.860;2023-05-07T14:48:47;3.03;;;2.77;;
2522;SDS011;1272;53.332;9.860;2023-05-07T14:51:13;4.40;;;2.70;;
2522;SDS011;1272;53.332;9.860;2023-05-07T14:53:40;3.13;;;2.93;;
2522;SDS011;1272;53.332;9.860;2023-05-07T14:56:06;2.40;;;2.30;;
2522;SDS011;1272;53.332;9.860;2023-05-07T14:58:32;4.50;;;2.87;;
2522;SDS011;1272;53.332;9.860;2023-05-07T15:00:58;3.23;;;2.43;;
2522;SDS011;1272;53.332;9.860;2023-05-07T15:03:24;2.77;;;2.67;;
2522;SDS011;1272;53.332;9.860;2023-05-07T15:05:50;2.27;;;2.17;;
2522;SDS011;1272;53.332;9.860;2023-05-07T15:08:16;2.97;;;2.77;;
2522;SDS011;1272;53.332;9.860;2023-05-07T15:10:45;2.50;;;2.40;;
2522;SDS011;1272;53.332;9.860;2023-05-07T15:13:11;2.33;;;2.20;;
2522;SDS011;1272;53.332;9.860;2023-05-07T15:15:41;2.10;;;2.00;;
2522;SDS011;1272;53.332;9.860;2023-05-07T15:18:08;2.50;;;2.40;;
2522;SDS011;1272;53.332;9.860;2023-05-07T15:20:34;2.23;;;2.13;;
2522;SDS011;1272;53.332;9.860;2023-05-07T15:23:01;2.10;;;2.00;;
2522;SDS011;1272;53.332;9.860;2023-05-07T15:25:27;2.53;;;2.43;;
2522;SDS011;1272;53.332;9.860;2023-05-07T15:27:53;2.23;;;2.13;;